createdAt,value
2018-12-27T00:02:28.386Z,1.00
2018-12-27T00:07:31.775Z,1.00
2018-12-27T00:12:35.163Z,1.00
2018-12-27T00:17:38.551Z,1.00
2018-12-27T00:22:41.934Z,1.00
2018-12-27T00:27:45.319Z,1.00
2018-12-27T00:32:48.852Z,1.00
2018-12-27T00:37:52.443Z,1.00
2018-12-27T00:42:55.991Z,1.00
2018-12-27T00:47:59.531Z,1.00
2018-12-27T00:53:03.069Z,1.00
2018-12-27T00:58:06.607Z,1.00
2018-12-27T01:03:11.374Z,1.00
2018-12-27T01:08:15.076Z,1.00
2018-12-27T01:13:18.619Z,1.00
2018-12-27T01:18:22.174Z,1.00
2018-12-27T01:23:25.726Z,1.00
2018-12-27T01:28:29.263Z,1.00
2018-12-27T01:33:32.805Z,1.00
2018-12-27T01:38:36.655Z,1.00
2018-12-27T01:43:40.239Z,1.00
2018-12-27T01:48:43.784Z,1.00
2018-12-27T01:53:47.315Z,1.00
2018-12-27T01:58:50.859Z,1.00
2018-12-27T02:03:54.410Z,1.00
2018-12-27T02:08:57.951Z,1.00
2018-12-27T02:14:01.497Z,1.00
2018-12-27T02:19:05.034Z,1.00
2018-12-27T02:24:08.583Z,1.00
2018-12-27T02:29:12.122Z,1.00
2018-12-27T02:34:15.664Z,1.00
2018-12-27T02:39:19.211Z,0.90
2018-12-27T02:44:22.750Z,0.90
2018-12-27T02:49:26.297Z,0.90
2018-12-27T02:54:29.838Z,0.90
2018-12-27T02:59:33.391Z,0.90
2018-12-27T03:04:36.939Z,0.90
2018-12-27T03:09:40.479Z,0.90
2018-12-27T03:14:44.023Z,0.90
2018-12-27T03:19:47.552Z,0.90
2018-12-27T03:24:51.102Z,0.90
2018-12-27T03:29:54.638Z,0.90
2018-12-27T03:34:58.171Z,0.90
2018-12-27T03:40:01.715Z,0.90
2018-12-27T03:45:05.247Z,0.90
2018-12-27T03:50:08.791Z,0.90
2018-12-27T03:55:12.335Z,0.90
2018-12-27T04:00:15.879Z,0.90
2018-12-27T04:05:19.432Z,0.90
2018-12-27T04:10:22.964Z,0.90
2018-12-27T04:15:26.416Z,0.90
2018-12-27T04:20:29.795Z,0.90
2018-12-27T04:25:33.538Z,0.90
2018-12-27T04:30:36.983Z,0.90
2018-12-27T04:35:40.363Z,0.90
2018-12-27T04:40:43.747Z,0.90
2018-12-27T04:45:47.150Z,0.90
2018-12-27T04:50:50.529Z,0.90
2018-12-27T04:55:53.931Z,0.90
2018-12-27T05:00:57.329Z,0.90
2018-12-27T05:06:00.722Z,0.90
2018-12-27T05:11:04.111Z,0.90
2018-12-27T05:16:07.487Z,0.90
2018-12-27T05:21:10.869Z,0.90
2018-12-27T05:26:14.245Z,0.90
2018-12-27T05:31:17.628Z,0.90
2018-12-27T05:36:21.019Z,0.90
2018-12-27T05:41:24.403Z,0.90
2018-12-27T05:46:27.787Z,0.90
2018-12-27T05:51:31.163Z,0.90
2018-12-27T05:56:34.569Z,0.90
2018-12-27T06:01:37.998Z,0.90
2018-12-27T06:06:41.376Z,0.90
2018-12-27T06:11:44.767Z,0.90
2018-12-27T06:16:48.164Z,0.90
2018-12-27T06:21:51.554Z,0.90
2018-12-27T06:26:54.948Z,0.90
2018-12-27T06:31:58.358Z,0.90
2018-12-27T06:37:01.766Z,0.90
2018-12-27T06:42:05.162Z,0.90
2018-12-27T06:47:08.544Z,0.90
2018-12-27T06:52:11.934Z,0.90
2018-12-27T06:57:15.549Z,0.90
2018-12-27T07:02:18.927Z,0.90
2018-12-27T07:07:22.319Z,0.90
2018-12-27T07:12:25.707Z,0.90
2018-12-27T07:17:29.100Z,0.90
2018-12-27T07:22:32.477Z,0.90
2018-12-27T07:27:35.855Z,1.00
2018-12-27T07:32:39.272Z,1.00
2018-12-27T07:37:42.651Z,1.00
2018-12-27T07:42:46.037Z,1.00
2018-12-27T07:47:49.415Z,1.00
2018-12-27T07:52:52.808Z,1.00
2018-12-27T07:57:56.191Z,1.00
2018-12-27T08:02:59.570Z,1.00
2018-12-27T08:08:02.963Z,1.00
2018-12-27T08:13:06.364Z,1.00
2018-12-27T08:18:09.751Z,1.10
2018-12-27T08:23:13.210Z,1.10
2018-12-27T08:28:16.584Z,1.10
2018-12-27T08:33:20.126Z,1.10
2018-12-27T08:38:23.542Z,1.10
2018-12-27T08:43:26.943Z,1.10
2018-12-27T08:48:30.383Z,1.10
2018-12-27T08:53:33.810Z,1.10
2018-12-27T08:58:37.292Z,1.20
2018-12-27T09:03:40.671Z,1.10
2018-12-27T09:08:44.054Z,1.20
2018-12-27T09:13:47.428Z,1.20
2018-12-27T09:18:50.803Z,1.20
2018-12-27T09:23:54.240Z,1.20
2018-12-27T09:28:57.647Z,1.30
2018-12-27T09:34:01.025Z,1.30
2018-12-27T09:39:06.263Z,1.30
2018-12-27T09:44:09.650Z,1.30
2018-12-27T09:49:13.035Z,1.30
2018-12-27T09:54:16.411Z,1.30
2018-12-27T09:59:19.797Z,1.40
2018-12-27T10:04:23.228Z,1.40
2018-12-27T10:09:26.602Z,1.50
2018-12-27T10:14:29.985Z,1.50
2018-12-27T10:19:33.403Z,1.50
2018-12-27T10:24:36.807Z,1.60
2018-12-27T10:29:40.202Z,1.60
2018-12-27T10:34:43.583Z,1.70
2018-12-27T10:39:46.972Z,1.70
2018-12-27T10:44:50.347Z,1.70
2018-12-27T10:49:53.724Z,1.80
2018-12-27T10:54:57.108Z,1.80
2018-12-27T11:00:00.498Z,1.90
2018-12-27T11:05:04.560Z,1.90
2018-12-27T11:10:11.260Z,1.90
2018-12-27T11:15:14.740Z,2.00
2018-12-27T11:20:18.119Z,2.00
2018-12-27T11:25:21.503Z,2.10
2018-12-27T11:30:24.912Z,2.10
2018-12-27T11:35:28.302Z,2.10
2018-12-27T11:40:31.679Z,2.20
2018-12-27T11:45:35.071Z,2.30
2018-12-27T11:50:38.452Z,2.30
2018-12-27T11:55:41.839Z,2.30
2018-12-27T12:00:45.221Z,2.40
2018-12-27T12:05:48.601Z,2.50
2018-12-27T12:10:51.977Z,2.60
2018-12-27T12:15:55.365Z,2.60
2018-12-27T12:20:58.762Z,2.60
2018-12-27T12:26:02.126Z,2.70
2018-12-27T12:31:05.511Z,2.80
2018-12-27T12:36:10.802Z,3.00
2018-12-27T12:41:14.004Z,3.20
2018-12-27T12:46:17.403Z,3.30
2018-12-27T12:51:20.787Z,3.40
2018-12-27T12:56:24.181Z,3.50
2018-12-27T13:01:27.588Z,3.60
2018-12-27T13:06:30.976Z,3.60
2018-12-27T13:11:34.353Z,3.60
2018-12-27T13:16:37.721Z,3.70
2018-12-27T13:21:41.109Z,3.80
2018-12-27T13:26:44.486Z,3.80
2018-12-27T13:31:47.871Z,3.70
2018-12-27T13:36:51.250Z,3.70
2018-12-27T13:41:54.651Z,3.70
2018-12-27T13:46:58.035Z,3.70
2018-12-27T13:52:01.427Z,3.70
2018-12-27T13:57:04.803Z,3.70
2018-12-27T14:02:08.183Z,3.60
2018-12-27T14:07:11.572Z,3.60
2018-12-27T14:12:14.952Z,3.60
2018-12-27T14:17:18.360Z,3.60
2018-12-27T14:22:21.752Z,3.60
2018-12-27T14:27:25.146Z,3.60
2018-12-27T14:32:28.526Z,3.60
2018-12-27T14:37:31.914Z,3.50
2018-12-27T14:42:35.291Z,3.50
2018-12-27T14:47:38.681Z,3.50
2018-12-27T14:52:42.090Z,3.40
2018-12-27T14:57:45.483Z,3.40
2018-12-27T15:02:48.863Z,3.30
2018-12-27T15:07:52.267Z,3.30
2018-12-27T15:12:55.656Z,3.20
2018-12-27T15:17:59.032Z,3.10
2018-12-27T15:23:02.416Z,3.00
2018-12-27T15:28:05.800Z,2.90
2018-12-27T15:33:09.263Z,2.90
2018-12-27T15:38:12.635Z,2.80
2018-12-27T15:43:16.054Z,2.70
2018-12-27T15:48:19.501Z,2.70
2018-12-27T15:53:22.908Z,2.60
2018-12-27T15:58:26.379Z,2.50
2018-12-27T16:03:29.976Z,2.50
2018-12-27T16:08:33.359Z,2.40
2018-12-27T16:13:36.749Z,2.30
2018-12-27T16:18:40.136Z,2.30
2018-12-27T16:23:43.536Z,2.30
2018-12-27T16:28:47.015Z,2.20
2018-12-27T16:33:50.391Z,2.10
2018-12-27T16:38:53.777Z,2.10
2018-12-27T16:43:57.159Z,2.00
2018-12-27T16:49:00.544Z,2.00
2018-12-27T16:54:03.936Z,1.90
2018-12-27T16:59:07.324Z,1.90
2018-12-27T17:04:10.717Z,1.80
2018-12-27T17:09:14.113Z,1.80
2018-12-27T17:14:17.498Z,1.80
2018-12-27T17:19:20.896Z,1.80
2018-12-27T17:24:24.295Z,1.70
2018-12-27T17:29:27.667Z,1.70
2018-12-27T17:34:31.051Z,1.60
2018-12-27T17:39:34.507Z,1.60
2018-12-27T17:44:37.902Z,1.60
2018-12-27T17:49:41.295Z,1.60
2018-12-27T17:54:44.692Z,1.60
2018-12-27T17:59:48.077Z,1.60
2018-12-27T18:04:51.470Z,1.50
2018-12-27T18:09:54.856Z,1.50
2018-12-27T18:15:01.587Z,1.50
2018-12-27T18:20:06.311Z,1.50
2018-12-27T18:25:09.699Z,1.50
2018-12-27T18:30:13.083Z,1.50
2018-12-27T18:35:16.471Z,1.50
2018-12-27T18:40:19.885Z,1.50
2018-12-27T18:45:23.270Z,1.50
2018-12-27T18:50:26.663Z,1.40
2018-12-27T18:55:30.279Z,1.40
2018-12-27T19:00:33.690Z,1.40
2018-12-27T19:05:37.088Z,1.40
2018-12-27T19:10:40.469Z,1.40
2018-12-27T19:15:47.442Z,1.40
2018-12-27T19:20:53.700Z,1.40
2018-12-27T19:25:57.171Z,1.40
2018-12-27T19:31:00.559Z,1.40
2018-12-27T19:36:03.960Z,1.40
2018-12-27T19:41:07.413Z,1.40
2018-12-27T19:46:10.812Z,1.40
2018-12-27T19:51:14.203Z,1.40
2018-12-27T19:56:18.435Z,1.40
2018-12-27T20:01:21.816Z,1.40
2018-12-27T20:06:25.204Z,1.40
2018-12-27T20:11:28.601Z,1.40
2018-12-27T20:16:31.987Z,1.40
2018-12-27T20:21:35.376Z,1.30
2018-12-27T20:26:38.768Z,1.40
2018-12-27T20:31:42.173Z,1.30
2018-12-27T20:36:45.549Z,1.30
2018-12-27T20:41:48.936Z,1.30
2018-12-27T20:46:52.318Z,1.30
2018-12-27T20:51:55.691Z,1.30
2018-12-27T20:56:59.088Z,1.30
2018-12-27T21:02:02.635Z,1.30
2018-12-27T21:07:06.038Z,1.30
2018-12-27T21:12:09.534Z,1.30
2018-12-27T21:17:12.915Z,1.30
2018-12-27T21:22:16.303Z,1.30
2018-12-27T21:27:19.686Z,1.30
2018-12-27T21:32:23.080Z,1.30
2018-12-27T21:37:26.460Z,1.30
2018-12-27T21:42:29.835Z,1.20
2018-12-27T21:47:33.226Z,1.20
2018-12-27T21:52:36.604Z,1.20
2018-12-27T21:57:40.009Z,1.20
2018-12-27T22:02:43.442Z,1.20
2018-12-27T22:07:46.839Z,1.20
2018-12-27T22:12:50.213Z,1.20
2018-12-27T22:17:53.588Z,1.20
2018-12-27T22:22:56.984Z,1.20
2018-12-27T22:28:00.360Z,1.20
2018-12-27T22:33:03.750Z,1.10
2018-12-27T22:38:07.128Z,1.10
2018-12-27T22:43:10.511Z,1.10
2018-12-27T22:48:14.171Z,1.10
2018-12-27T22:53:17.538Z,1.10
2018-12-27T22:58:20.933Z,1.10
2018-12-27T23:03:24.327Z,1.10
2018-12-27T23:08:27.827Z,1.10
2018-12-27T23:13:31.211Z,1.10
2018-12-27T23:18:34.609Z,1.00
2018-12-27T23:23:38.054Z,1.00
2018-12-27T23:28:41.435Z,1.00
2018-12-27T23:33:44.824Z,1.00
2018-12-27T23:38:50.383Z,1.00
2018-12-27T23:43:53.315Z,1.00
2018-12-27T23:48:56.707Z,1.00
2018-12-27T23:54:00.083Z,1.00
2018-12-27T23:59:03.464Z,1.00
